sensor_id;sensor_type;location;lat;lon;timestamp;pressure;altitude;pressure_sealevel;temperature;humidity
17209;BME280;8720;48.488;9.202;2023-04-06T00:01:20;97227.53;;;8.17;35.38
17209;BME280;8720;48.488;9.202;2023-04-06T00:03:47;97212.94;;;8.04;35.14
17209;BME280;8720;48.488;9.202;2023-04-06T00:06:15;97223.25;;;8.10;35.52
17209;BME280;8720;48.488;9.202;2023-04-06T00:08:43;97217.22;;;8.06;35.37
17209;BME280;8720;48.488;9.202;2023-04-06T00:11:11;97216.41;;;8.03;35.29
17209;BME280;8720;48.488;9.202;2023-04-06T00:13:38;97214.69;;;7.99;35.26
17209;BME280;8720;48.488;9.202;2023-04-06T00:16:06;97215.59;;;7.96;35.47
17209;BME280;8720;48.488;9.202;2023-04-06T00:18:34;97210.44;;;7.92;35.50
17209;BME280;8720;48.488;9.202;2023-04-06T00:21:01;97213.97;;;7.88;35.56
17209;BME280;8720;48.488;9.202;2023-04-06T00:23:28;97215.75;;;7.84;35.34
17209;BME280;8720;48.488;9.202;2023-04-06T00:25:57;97207.09;;;7.81;35.44
17209;BME280;8720;48.488;9.202;2023-04-06T00:28:25;97202.81;;;7.77;35.81
17209;BME280;8720;48.488;9.202;2023-04-06T00:30:52;97208.03;;;7.74;35.65
17209;BME280;8720;48.488;9.202;2023-04-06T00:33:22;97208.94;;;7.70;35.93
17209;BME280;8720;48.488;9.202;2023-04-06T00:35:50;97209.84;;;7.67;35.70
17209;BME280;8720;48.488;9.202;2023-04-06T00:38:17;97203.78;;;7.64;35.85
17209;BME280;8720;48.488;9.202;2023-04-06T00:40:45;97190.91;;;7.52;35.73
17209;BME280;8720;48.488;9.202;2023-04-06T00:43:14;97199.50;;;7.57;36.02
17209;BME280;8720;48.488;9.202;2023-04-06T00:45:42;97203.91;;;7.53;35.95
17209;BME280;8720;48.488;9.202;2023-04-06T00:48:10;97198.72;;;7.52;35.87
17209;BME280;8720;48.488;9.202;2023-04-06T00:50:38;97193.50;;;7.50;35.80
17209;BME280;8720;48.488;9.202;2023-04-06T00:53:06;97198.75;;;7.47;36.05
17209;BME280;8720;48.488;9.202;2023-04-06T00:55:33;97198.75;;;7.46;35.78
17209;BME280;8720;48.488;9.202;2023-04-06T00:58:02;97190.09;;;7.44;35.76
17209;BME280;8720;48.488;9.202;2023-04-06T01:00:37;97182.31;;;7.41;36.05
17209;BME280;8720;48.488;9.202;2023-04-06T01:03:06;97187.53;;;7.39;36.13
17209;BME280;8720;48.488;9.202;2023-04-06T01:05:39;97192.78;;;7.36;36.21
17209;BME280;8720;48.488;9.202;2023-04-06T01:08:16;97185.88;;;7.29;36.37
17209;BME280;8720;48.488;9.202;2023-04-06T01:10:45;97197.19;;;7.26;36.37
17209;BME280;8720;48.488;9.202;2023-04-06T01:13:27;97184.22;;;7.20;36.52
17209;BME280;8720;48.488;9.202;2023-04-06T01:16:01;97191.22;;;7.17;36.67
17209;BME280;8720;48.488;9.202;2023-04-06T01:18:47;97182.56;;;7.10;36.55
17209;BME280;8720;48.488;9.202;2023-04-06T01:21:18;97192.16;;;7.07;36.83
17209;BME280;8720;48.488;9.202;2023-04-06T01:24:01;97180.91;;;7.00;36.78
17209;BME280;8720;48.488;9.202;2023-04-06T01:26:40;97187.88;;;6.97;36.79
17209;BME280;8720;48.488;9.202;2023-04-06T01:29:09;97185.31;;;6.94;37.02
17209;BME280;8720;48.488;9.202;2023-04-06T01:31:37;97179.25;;;6.92;37.17
17209;BME280;8720;48.488;9.202;2023-04-06T01:34:05;97179.28;;;6.87;37.17
17209;BME280;8720;48.488;9.202;2023-04-06T01:36:33;97169.78;;;6.83;37.13
17209;BME280;8720;48.488;9.202;2023-04-06T01:39:16;97171.56;;;6.78;36.98
17209;BME280;8720;48.488;9.202;2023-04-06T01:41:44;97175.03;;;6.76;37.19
17209;BME280;8720;48.488;9.202;2023-04-06T01:44:16;97172.47;;;6.73;37.31
17209;BME280;8720;48.488;9.202;2023-04-06T01:46:45;97175.94;;;6.67;37.20
17209;BME280;8720;48.488;9.202;2023-04-06T01:49:16;97169.06;;;6.60;37.33
17209;BME280;8720;48.488;9.202;2023-04-06T01:51:48;97162.16;;;6.56;37.14
17209;BME280;8720;48.488;9.202;2023-04-06T01:54:17;97163.03;;;6.52;37.52
17209;BME280;8720;48.488;9.202;2023-04-06T01:56:58;97156.16;;;6.47;37.37
17209;BME280;8720;48.488;9.202;2023-04-06T01:59:47;97156.19;;;6.40;37.32
17209;BME280;8720;48.488;9.202;2023-04-06T02:02:23;97161.41;;;6.37;37.64
17209;BME280;8720;48.488;9.202;2023-04-06T02:05:00;97169.22;;;6.36;37.87
17209;BME280;8720;48.488;9.202;2023-04-06T02:07:28;97164.03;;;6.33;38.04
17209;BME280;8720;48.488;9.202;2023-04-06T02:09:58;97165.75;;;6.31;37.94
17209;BME280;8720;48.488;9.202;2023-04-06T02:12:34;97164.06;;;6.27;37.79
17209;BME280;8720;48.488;9.202;2023-04-06T02:15:03;97162.34;;;6.23;38.11
17209;BME280;8720;48.488;9.202;2023-04-06T02:17:30;97161.50;;;6.19;37.93
17209;BME280;8720;48.488;9.202;2023-04-06T02:19:58;97163.22;;;6.17;38.06
17209;BME280;8720;48.488;9.202;2023-04-06T02:22:25;97161.53;;;6.12;38.21
17209;BME280;8720;48.488;9.202;2023-04-06T02:24:53;97159.84;;;6.05;38.00
17209;BME280;8720;48.488;9.202;2023-04-06T02:27:21;97160.72;;;5.98;38.44
17209;BME280;8720;48.488;9.202;2023-04-06T02:29:49;97155.56;;;5.92;38.38
17209;BME280;8720;48.488;9.202;2023-04-06T02:32:19;97160.78;;;5.87;38.67
17209;BME280;8720;48.488;9.202;2023-04-06T02:34:48;97159.94;;;5.84;38.50
17209;BME280;8720;48.488;9.202;2023-04-06T02:37:18;97165.09;;;5.82;38.72
17209;BME280;8720;48.488;9.202;2023-04-06T02:39:47;97152.09;;;5.81;38.61
17209;BME280;8720;48.488;9.202;2023-04-06T02:42:14;97158.16;;;5.81;38.41
17209;BME280;8720;48.488;9.202;2023-04-06T02:44:44;97150.38;;;5.80;38.69
17209;BME280;8720;48.488;9.202;2023-04-06T02:47:12;97163.38;;;5.80;38.64
17209;BME280;8720;48.488;9.202;2023-04-06T02:49:42;97156.44;;;5.77;38.55
17209;BME280;8720;48.488;9.202;2023-04-06T02:52:10;97158.16;;;5.77;38.57
17209;BME280;8720;48.488;9.202;2023-04-06T02:54:37;97157.31;;;5.75;38.61
17209;BME280;8720;48.488;9.202;2023-04-06T02:57:05;97162.50;;;5.73;38.84
17209;BME280;8720;48.488;9.202;2023-04-06T02:59:38;97157.34;;;5.72;38.88
17209;BME280;8720;48.488;9.202;2023-04-06T03:02:16;97159.94;;;5.67;38.78
17209;BME280;8720;48.488;9.202;2023-04-06T03:04:44;97159.97;;;5.61;39.04
17209;BME280;8720;48.488;9.202;2023-04-06T03:07:22;97153.06;;;5.54;39.04
17209;BME280;8720;48.488;9.202;2023-04-06T03:09:49;97158.25;;;5.51;39.10
17209;BME280;8720;48.488;9.202;2023-04-06T03:12:17;97149.59;;;5.50;39.16
17209;BME280;8720;48.488;9.202;2023-04-06T03:15:05;97159.13;;;5.48;39.01
17209;BME280;8720;48.488;9.202;2023-04-06T03:17:34;97157.41;;;5.49;39.25
17209;BME280;8720;48.488;9.202;2023-04-06T03:20:06;97149.63;;;5.49;38.89
17209;BME280;8720;48.488;9.202;2023-04-06T03:22:34;97152.19;;;5.50;39.13
17209;BME280;8720;48.488;9.202;2023-04-06T03:25:02;97151.31;;;5.50;39.24
17209;BME280;8720;48.488;9.202;2023-04-06T03:27:31;97153.09;;;5.49;39.21
17209;BME280;8720;48.488;9.202;2023-04-06T03:29:59;97157.41;;;5.49;39.03
17209;BME280;8720;48.488;9.202;2023-04-06T03:32:31;97155.66;;;5.46;39.18
17209;BME280;8720;48.488;9.202;2023-04-06T03:35:00;97158.25;;;5.46;39.24
17209;BME280;8720;48.488;9.202;2023-04-06T03:37:27;97142.72;;;5.39;39.47
17209;BME280;8720;48.488;9.202;2023-04-06T03:39:59;97156.53;;;5.45;39.18
17209;BME280;8720;48.488;9.202;2023-04-06T03:42:28;97164.34;;;5.45;39.41
17209;BME280;8720;48.488;9.202;2023-04-06T03:45:02;97163.47;;;5.43;39.41
17209;BME280;8720;48.488;9.202;2023-04-06T03:47:30;97172.97;;;5.41;39.41
17209;BME280;8720;48.488;9.202;2023-04-06T03:50:04;97167.78;;;5.40;39.62
17209;BME280;8720;48.488;9.202;2023-04-06T03:52:35;97167.78;;;5.37;39.39
17209;BME280;8720;48.488;9.202;2023-04-06T03:55:03;97171.25;;;5.34;39.44
17209;BME280;8720;48.488;9.202;2023-04-06T03:57:30;97171.25;;;5.37;39.51
17209;BME280;8720;48.488;9.202;2023-04-06T03:59:58;97174.72;;;5.33;39.49
17209;BME280;8720;48.488;9.202;2023-04-06T04:02:26;97177.28;;;5.36;39.66
17209;BME280;8720;48.488;9.202;2023-04-06T04:04:53;97177.31;;;5.35;39.52
17209;BME280;8720;48.488;9.202;2023-04-06T04:07:22;97179.91;;;5.33;39.63
17209;BME280;8720;48.488;9.202;2023-04-06T04:09:50;97183.34;;;5.32;39.61
17209;BME280;8720;48.488;9.202;2023-04-06T04:12:17;97180.75;;;5.29;39.63
17209;BME280;8720;48.488;9.202;2023-04-06T04:14:45;97183.38;;;5.28;39.48
17209;BME280;8720;48.488;9.202;2023-04-06T04:17:12;97188.53;;;5.25;39.64
17209;BME280;8720;48.488;9.202;2023-04-06T04:19:39;97192.00;;;5.24;39.57
17209;BME280;8720;48.488;9.202;2023-04-06T04:22:07;97190.28;;;5.20;39.92
17209;BME280;8720;48.488;9.202;2023-04-06T04:24:40;97187.69;;;5.18;39.78
17209;BME280;8720;48.488;9.202;2023-04-06T04:27:07;97188.53;;;5.17;39.89
17209;BME280;8720;48.488;9.202;2023-04-06T04:29:35;97189.44;;;5.16;39.83
17209;BME280;8720;48.488;9.202;2023-04-06T04:32:07;97191.16;;;5.14;40.10
17209;BME280;8720;48.488;9.202;2023-04-06T04:34:38;97190.28;;;5.12;40.15
17209;BME280;8720;48.488;9.202;2023-04-06T04:37:09;97191.16;;;5.10;40.09
17209;BME280;8720;48.488;9.202;2023-04-06T04:39:48;97191.16;;;5.08;40.05
17209;BME280;8720;48.488;9.202;2023-04-06T04:42:16;97195.47;;;5.06;40.11
17209;BME280;8720;48.488;9.202;2023-04-06T04:44:49;97198.06;;;5.05;40.09
17209;BME280;8720;48.488;9.202;2023-04-06T04:47:27;97200.63;;;5.03;40.17
17209;BME280;8720;48.488;9.202;2023-04-06T04:49:55;97197.22;;;5.03;40.09
17209;BME280;8720;48.488;9.202;2023-04-06T04:52:24;97203.22;;;5.03;40.16
17209;BME280;8720;48.488;9.202;2023-04-06T04:55:02;97205.81;;;5.03;40.41
17209;BME280;8720;48.488;9.202;2023-04-06T04:57:29;97207.56;;;5.03;40.51
17209;BME280;8720;48.488;9.202;2023-04-06T04:59:57;97200.63;;;5.03;40.31
17209;BME280;8720;48.488;9.202;2023-04-06T05:02:24;97204.97;;;5.04;40.50
17209;BME280;8720;48.488;9.202;2023-04-06T05:05:27;97212.75;;;5.00;40.56
17209;BME280;8720;48.488;9.202;2023-04-06T05:07:55;97212.75;;;5.01;40.59
17209;BME280;8720;48.488;9.202;2023-04-06T05:10:42;97202.41;;;5.01;40.58
17209;BME280;8720;48.488;9.202;2023-04-06T05:13:11;97207.56;;;5.04;40.55
17209;BME280;8720;48.488;9.202;2023-04-06T05:15:39;97208.41;;;5.09;40.67
17209;BME280;8720;48.488;9.202;2023-04-06T05:18:18;97209.31;;;5.13;40.62
17209;BME280;8720;48.488;9.202;2023-04-06T05:20:47;97204.09;;;5.17;40.77
17209;BME280;8720;48.488;9.202;2023-04-06T05:23:16;97217.06;;;5.23;40.80
17209;BME280;8720;48.488;9.202;2023-04-06T05:25:45;97215.34;;;5.28;40.96
17209;BME280;8720;48.488;9.202;2023-04-06T05:28:18;97211.88;;;5.32;40.83
17209;BME280;8720;48.488;9.202;2023-04-06T05:30:46;97215.34;;;5.39;40.96
17209;BME280;8720;48.488;9.202;2023-04-06T05:33:14;97218.78;;;5.44;40.93
17209;BME280;8720;48.488;9.202;2023-04-06T05:36:03;97220.50;;;5.48;40.89
17209;BME280;8720;48.488;9.202;2023-04-06T05:38:34;97225.69;;;5.55;40.87
17209;BME280;8720;48.488;9.202;2023-04-06T05:41:12;97227.44;;;5.61;41.03
17209;BME280;8720;48.488;9.202;2023-04-06T05:43:41;97225.69;;;5.68;41.10
17209;BME280;8720;48.488;9.202;2023-04-06T05:46:09;97230.84;;;5.75;40.98
17209;BME280;8720;48.488;9.202;2023-04-06T05:48:36;97223.06;;;5.81;41.09
17209;BME280;8720;48.488;9.202;2023-04-06T05:51:04;97220.47;;;5.87;41.06
17209;BME280;8720;48.488;9.202;2023-04-06T05:53:41;97226.53;;;5.94;40.96
17209;BME280;8720;48.488;9.202;2023-04-06T05:56:08;97233.44;;;6.01;40.98
17209;BME280;8720;48.488;9.202;2023-04-06T05:58:37;97231.69;;;6.09;40.96
17209;BME280;8720;48.488;9.202;2023-04-06T06:01:06;97237.69;;;6.18;40.83
17209;BME280;8720;48.488;9.202;2023-04-06T06:03:42;97240.25;;;6.29;40.81
17209;BME280;8720;48.488;9.202;2023-04-06T06:06:09;97235.00;;;6.36;40.83
17209;BME280;8720;48.488;9.202;2023-04-06T06:08:48;97236.72;;;6.45;40.92
17209;BME280;8720;48.488;9.202;2023-04-06T06:11:17;97237.53;;;6.56;40.56
17209;BME280;8720;48.488;9.202;2023-04-06T06:13:46;97235.75;;;6.66;40.56
17209;BME280;8720;48.488;9.202;2023-04-06T06:16:14;97240.88;;;6.78;40.70
17209;BME280;8720;48.488;9.202;2023-04-06T06:18:46;97241.66;;;6.93;40.45
17209;BME280;8720;48.488;9.202;2023-04-06T06:21:14;97240.63;;;7.17;40.78
17209;BME280;8720;48.488;9.202;2023-04-06T06:23:43;97241.19;;;7.52;40.85
17209;BME280;8720;48.488;9.202;2023-04-06T06:26:15;97238.88;;;8.10;41.19
17209;BME280;8720;48.488;9.202;2023-04-06T06:28:42;97236.50;;;8.66;40.79
17209;BME280;8720;48.488;9.202;2023-04-06T06:31:13;97232.78;;;9.42;40.56
17209;BME280;8720;48.488;9.202;2023-04-06T06:33:43;97235.91;;;10.14;40.36
17209;BME280;8720;48.488;9.202;2023-04-06T06:36:10;97235.34;;;10.83;39.94
17209;BME280;8720;48.488;9.202;2023-04-06T06:38:40;97237.19;;;11.55;39.44
17209;BME280;8720;48.488;9.202;2023-04-06T06:41:07;97235.41;;;12.24;38.71
17209;BME280;8720;48.488;9.202;2023-04-06T06:43:37;97230.91;;;12.89;38.00
17209;BME280;8720;48.488;9.202;2023-04-06T06:46:07;97219.53;;;13.45;37.21
17209;BME280;8720;48.488;9.202;2023-04-06T06:48:36;97227.78;;;13.87;36.49
17209;BME280;8720;48.488;9.202;2023-04-06T06:51:04;97225.56;;;14.26;36.07
17209;BME280;8720;48.488;9.202;2023-04-06T06:53:32;97239.09;;;14.65;35.61
17209;BME280;8720;48.488;9.202;2023-04-06T06:55:59;97231.78;;;14.96;35.26
17209;BME280;8720;48.488;9.202;2023-04-06T06:58:26;97234.50;;;15.16;34.63
17209;BME280;8720;48.488;9.202;2023-04-06T07:00:56;97243.31;;;15.38;34.29
17209;BME280;8720;48.488;9.202;2023-04-06T07:03:25;97235.47;;;15.58;33.96
17209;BME280;8720;48.488;9.202;2023-04-06T07:05:56;97240.16;;;15.73;33.49
17209;BME280;8720;48.488;9.202;2023-04-06T07:08:24;97237.06;;;15.84;33.37
17209;BME280;8720;48.488;9.202;2023-04-06T07:10:53;97242.81;;;15.93;33.20
17209;BME280;8720;48.488;9.202;2023-04-06T07:13:22;97242.00;;;16.13;33.04
17209;BME280;8720;48.488;9.202;2023-04-06T07:15:52;97233.06;;;16.35;32.88
17209;BME280;8720;48.488;9.202;2023-04-06T07:18:20;97247.97;;;16.58;32.79
17209;BME280;8720;48.488;9.202;2023-04-06T07:20:47;97232.28;;;16.74;32.32
17209;BME280;8720;48.488;9.202;2023-04-06T07:23:17;97230.41;;;16.96;32.00
17209;BME280;8720;48.488;9.202;2023-04-06T07:25:45;97227.75;;;17.14;31.89
17209;BME280;8720;48.488;9.202;2023-04-06T07:28:12;97234.75;;;17.34;31.83
17209;BME280;8720;48.488;9.202;2023-04-06T07:30:42;97229.63;;;17.50;31.49
17209;BME280;8720;48.488;9.202;2023-04-06T07:33:11;97240.34;;;17.65;30.83
17209;BME280;8720;48.488;9.202;2023-04-06T07:35:40;97233.59;;;17.77;31.13
17209;BME280;8720;48.488;9.202;2023-04-06T07:38:07;97234.94;;;17.85;30.70
17209;BME280;8720;48.488;9.202;2023-04-06T07:40:37;97231.81;;;17.94;30.44
17209;BME280;8720;48.488;9.202;2023-04-06T07:43:04;97229.19;;;17.94;30.26
17209;BME280;8720;48.488;9.202;2023-04-06T07:45:32;97229.78;;;17.82;30.10
17209;BME280;8720;48.488;9.202;2023-04-06T07:48:01;97223.09;;;17.75;30.02
17209;BME280;8720;48.488;9.202;2023-04-06T07:50:29;97227.97;;;17.66;30.21
17209;BME280;8720;48.488;9.202;2023-04-06T07:52:57;97221.47;;;17.54;30.11
17209;BME280;8720;48.488;9.202;2023-04-06T07:55:27;97223.59;;;17.65;30.17
17209;BME280;8720;48.488;9.202;2023-04-06T07:57:55;97225.41;;;17.64;29.87
17209;BME280;8720;48.488;9.202;2023-04-06T08:00:23;97235.25;;;17.61;29.78
17209;BME280;8720;48.488;9.202;2023-04-06T08:02:50;97230.91;;;17.60;29.86
17209;BME280;8720;48.488;9.202;2023-04-06T08:05:18;97224.81;;;17.58;29.73
17209;BME280;8720;48.488;9.202;2023-04-06T08:07:45;97227.31;;;17.61;30.00
17209;BME280;8720;48.488;9.202;2023-04-06T08:10:13;97215.91;;;17.60;30.01
17209;BME280;8720;48.488;9.202;2023-04-06T08:12:40;97224.03;;;17.56;29.80
17209;BME280;8720;48.488;9.202;2023-04-06T08:15:10;97224.41;;;17.48;29.71
17209;BME280;8720;48.488;9.202;2023-04-06T08:17:37;97223.09;;;17.38;29.78
17209;BME280;8720;48.488;9.202;2023-04-06T08:20:07;97227.25;;;17.25;29.64
17209;BME280;8720;48.488;9.202;2023-04-06T08:22:35;97217.44;;;17.08;29.90
17209;BME280;8720;48.488;9.202;2023-04-06T08:25:03;97227.13;;;16.91;30.02
17209;BME280;8720;48.488;9.202;2023-04-06T08:27:30;97225.28;;;16.73;30.13
17209;BME280;8720;48.488;9.202;2023-04-06T08:29:58;97228.81;;;16.53;30.02
17209;BME280;8720;48.488;9.202;2023-04-06T08:32:27;97230.41;;;16.37;30.30
17209;BME280;8720;48.488;9.202;2023-04-06T08:34:54;97218.59;;;16.25;30.49
17209;BME280;8720;48.488;9.202;2023-04-06T08:37:22;97216.31;;;16.16;30.25
17209;BME280;8720;48.488;9.202;2023-04-06T08:39:50;97216.53;;;16.12;30.57
17209;BME280;8720;48.488;9.202;2023-04-06T08:42:20;97214.19;;;16.04;30.85
17209;BME280;8720;48.488;9.202;2023-04-06T08:44:49;97212.81;;;15.96;30.57
17209;BME280;8720;48.488;9.202;2023-04-06T08:47:18;97205.69;;;15.98;30.70
17209;BME280;8720;48.488;9.202;2023-04-06T08:49:48;97219.78;;;15.97;30.57
17209;BME280;8720;48.488;9.202;2023-04-06T08:52:18;97202.34;;;15.94;30.48
17209;BME280;8720;48.488;9.202;2023-04-06T08:54:47;97212.19;;;15.89;30.38
17209;BME280;8720;48.488;9.202;2023-04-06T08:57:16;97200.53;;;15.75;30.49
17209;BME280;8720;48.488;9.202;2023-04-06T08:59:46;97205.06;;;15.71;30.22
17209;BME280;8720;48.488;9.202;2023-04-06T09:02:18;97201.81;;;15.65;30.45
17209;BME280;8720;48.488;9.202;2023-04-06T09:04:49;97204.44;;;15.65;30.46
17209;BME280;8720;48.488;9.202;2023-04-06T09:07:19;97198.38;;;15.63;30.35
17209;BME280;8720;48.488;9.202;2023-04-06T09:09:48;97204.69;;;15.59;30.42
17209;BME280;8720;48.488;9.202;2023-04-06T09:12:27;97202.19;;;15.56;30.56
17209;BME280;8720;48.488;9.202;2023-04-06T09:14:55;97203.00;;;15.58;30.59
17209;BME280;8720;48.488;9.202;2023-04-06T09:17:24;97204.59;;;15.62;30.44
17209;BME280;8720;48.488;9.202;2023-04-06T09:19:54;97191.19;;;15.66;30.38
17209;BME280;8720;48.488;9.202;2023-04-06T09:22:22;97192.94;;;15.67;30.23
17209;BME280;8720;48.488;9.202;2023-04-06T09:24:53;97201.38;;;15.75;29.92
17209;BME280;8720;48.488;9.202;2023-04-06T09:27:31;97195.00;;;15.81;30.08
17209;BME280;8720;48.488;9.202;2023-04-06T09:30:07;97194.66;;;15.88;29.99
17209;BME280;8720;48.488;9.202;2023-04-06T09:32:47;97191.06;;;15.91;29.89
17209;BME280;8720;48.488;9.202;2023-04-06T09:35:17;97178.78;;;15.90;29.46
17209;BME280;8720;48.488;9.202;2023-04-06T09:37:47;97192.50;;;15.98;29.30
17209;BME280;8720;48.488;9.202;2023-04-06T09:40:15;97183.59;;;16.00;29.41
17209;BME280;8720;48.488;9.202;2023-04-06T09:42:46;97183.31;;;16.06;29.11
17209;BME280;8720;48.488;9.202;2023-04-06T09:45:14;97188.28;;;16.14;29.19
17209;BME280;8720;48.488;9.202;2023-04-06T09:47:44;97176.47;;;16.22;29.19
17209;BME280;8720;48.488;9.202;2023-04-06T09:50:14;97183.13;;;16.31;29.16
17209;BME280;8720;48.488;9.202;2023-04-06T09:52:48;97166.22;;;16.35;28.96
17209;BME280;8720;48.488;9.202;2023-04-06T09:55:23;97173.56;;;16.49;28.63
17209;BME280;8720;48.488;9.202;2023-04-06T09:58:01;97165.50;;;16.52;28.50
17209;BME280;8720;48.488;9.202;2023-04-06T10:00:40;97164.72;;;16.50;28.37
17209;BME280;8720;48.488;9.202;2023-04-06T10:03:21;97165.34;;;16.55;28.52
17209;BME280;8720;48.488;9.202;2023-04-06T10:05:57;97161.91;;;16.53;28.46
17209;BME280;8720;48.488;9.202;2023-04-06T10:08:30;97159.16;;;16.56;28.24
17209;BME280;8720;48.488;9.202;2023-04-06T10:11:00;97158.16;;;16.58;28.31
17209;BME280;8720;48.488;9.202;2023-04-06T10:13:29;97165.06;;;16.61;28.37
17209;BME280;8720;48.488;9.202;2023-04-06T10:15:59;97169.44;;;16.62;28.31
17209;BME280;8720;48.488;9.202;2023-04-06T10:18:27;97157.22;;;16.59;28.03
17209;BME280;8720;48.488;9.202;2023-04-06T10:21:01;97154.38;;;16.64;28.02
17209;BME280;8720;48.488;9.202;2023-04-06T10:23:36;97151.66;;;16.65;28.18
17209;BME280;8720;48.488;9.202;2023-04-06T10:26:04;97158.44;;;16.71;28.13
17209;BME280;8720;48.488;9.202;2023-04-06T10:28:35;97159.09;;;16.76;27.87
17209;BME280;8720;48.488;9.202;2023-04-06T10:31:05;97136.31;;;16.73;27.84
17209;BME280;8720;48.488;9.202;2023-04-06T10:33:34;97150.75;;;16.85;27.69
17209;BME280;8720;48.488;9.202;2023-04-06T10:36:11;97153.13;;;16.91;27.66
17209;BME280;8720;48.488;9.202;2023-04-06T10:38:42;97152.97;;;16.94;27.54
17209;BME280;8720;48.488;9.202;2023-04-06T10:41:11;97150.47;;;16.91;27.65
17209;BME280;8720;48.488;9.202;2023-04-06T10:43:41;97153.13;;;16.91;27.63
17209;BME280;8720;48.488;9.202;2023-04-06T10:46:10;97144.31;;;16.90;27.33
17209;BME280;8720;48.488;9.202;2023-04-06T10:48:39;97135.59;;;16.88;27.37
17209;BME280;8720;48.488;9.202;2023-04-06T10:51:12;97137.47;;;16.86;27.39
17209;BME280;8720;48.488;9.202;2023-04-06T10:53:43;97135.59;;;16.88;27.35
17209;BME280;8720;48.488;9.202;2023-04-06T10:56:12;97133.75;;;16.90;27.03
17209;BME280;8720;48.488;9.202;2023-04-06T10:58:44;97135.25;;;16.96;27.21
17209;BME280;8720;48.488;9.202;2023-04-06T11:01:15;97132.44;;;16.99;27.09
17209;BME280;8720;48.488;9.202;2023-04-06T11:03:44;97135.66;;;17.05;26.78
17209;BME280;8720;48.488;9.202;2023-04-06T11:06:18;97129.31;;;17.09;27.11
17209;BME280;8720;48.488;9.202;2023-04-06T11:08:48;97139.00;;;17.09;26.62
17209;BME280;8720;48.488;9.202;2023-04-06T11:11:17;97132.31;;;17.02;26.45
17209;BME280;8720;48.488;9.202;2023-04-06T11:13:48;97128.38;;;16.92;26.46
17209;BME280;8720;48.488;9.202;2023-04-06T11:16:19;97131.97;;;16.91;26.44
17209;BME280;8720;48.488;9.202;2023-04-06T11:18:53;97126.91;;;16.86;26.56
17209;BME280;8720;48.488;9.202;2023-04-06T11:21:32;97125.25;;;16.84;26.64
17209;BME280;8720;48.488;9.202;2023-04-06T11:24:09;97107.91;;;16.78;26.69
17209;BME280;8720;48.488;9.202;2023-04-06T11:26:39;97118.03;;;16.87;26.62
17209;BME280;8720;48.488;9.202;2023-04-06T11:29:08;97118.75;;;16.91;26.47
17209;BME280;8720;48.488;9.202;2023-04-06T11:31:42;97118.59;;;16.94;26.36
17209;BME280;8720;48.488;9.202;2023-04-06T11:34:19;97108.72;;;16.97;26.38
17209;BME280;8720;48.488;9.202;2023-04-06T11:36:49;97106.78;;;17.01;25.93
17209;BME280;8720;48.488;9.202;2023-04-06T11:39:21;97097.66;;;17.08;26.17
17209;BME280;8720;48.488;9.202;2023-04-06T11:41:50;97105.00;;;17.20;26.12
17209;BME280;8720;48.488;9.202;2023-04-06T11:44:30;97102.81;;;17.28;25.95
17209;BME280;8720;48.488;9.202;2023-04-06T11:47:00;97097.78;;;17.41;26.03
17209;BME280;8720;48.488;9.202;2023-04-06T11:49:29;97086.97;;;17.45;25.64
17209;BME280;8720;48.488;9.202;2023-04-06T11:51:57;97094.50;;;17.54;25.43
17209;BME280;8720;48.488;9.202;2023-04-06T11:54:34;97089.34;;;17.51;25.77
17209;BME280;8720;48.488;9.202;2023-04-06T11:57:04;97092.47;;;17.59;25.28
17209;BME280;8720;48.488;9.202;2023-04-06T11:59:32;97084.69;;;17.56;25.30
17209;BME280;8720;48.488;9.202;2023-04-06T12:02:01;97085.00;;;17.67;25.17
17209;BME280;8720;48.488;9.202;2023-04-06T12:04:28;97079.72;;;17.67;25.16
17209;BME280;8720;48.488;9.202;2023-04-06T12:06:56;97082.75;;;17.77;25.27
17209;BME280;8720;48.488;9.202;2023-04-06T12:09:24;97075.34;;;17.83;25.37
17209;BME280;8720;48.488;9.202;2023-04-06T12:11:53;97078.44;;;17.91;25.21
17209;BME280;8720;48.488;9.202;2023-04-06T12:14:22;97073.59;;;17.99;25.31
17209;BME280;8720;48.488;9.202;2023-04-06T12:16:49;97069.78;;;18.05;25.15
17209;BME280;8720;48.488;9.202;2023-04-06T12:19:17;97078.44;;;18.08;25.14
17209;BME280;8720;48.488;9.202;2023-04-06T12:21:44;97069.31;;;18.14;25.13
17209;BME280;8720;48.488;9.202;2023-04-06T12:24:12;97064.53;;;18.21;24.93
17209;BME280;8720;48.488;9.202;2023-04-06T12:26:40;97069.50;;;18.27;25.16
17209;BME280;8720;48.488;9.202;2023-04-06T12:29:09;97069.94;;;18.35;24.95
17209;BME280;8720;48.488;9.202;2023-04-06T12:31:37;97056.38;;;18.41;24.73
17209;BME280;8720;48.488;9.202;2023-04-06T12:34:07;97066.75;;;18.45;24.52
17209;BME280;8720;48.488;9.202;2023-04-06T12:36:34;97061.09;;;18.51;24.77
17209;BME280;8720;48.488;9.202;2023-04-06T12:39:04;97061.63;;;18.58;24.43
17209;BME280;8720;48.488;9.202;2023-04-06T12:41:32;97056.91;;;18.63;24.13
17209;BME280;8720;48.488;9.202;2023-04-06T12:44:00;97059.84;;;18.58;24.22
17209;BME280;8720;48.488;9.202;2023-04-06T12:46:29;97053.09;;;18.53;24.15
17209;BME280;8720;48.488;9.202;2023-04-06T12:48:58;97057.69;;;18.49;24.21
17209;BME280;8720;48.488;9.202;2023-04-06T12:51:28;97054.97;;;18.51;24.28
17209;BME280;8720;48.488;9.202;2023-04-06T12:53:57;97053.88;;;18.55;24.21
17209;BME280;8720;48.488;9.202;2023-04-06T12:56:24;97058.97;;;18.58;24.23
17209;BME280;8720;48.488;9.202;2023-04-06T12:58:52;97057.28;;;18.57;24.00
17209;BME280;8720;48.488;9.202;2023-04-06T13:01:20;97054.63;;;18.57;24.18
17209;BME280;8720;48.488;9.202;2023-04-06T13:03:49;97046.59;;;18.58;24.01
17209;BME280;8720;48.488;9.202;2023-04-06T13:06:17;97052.81;;;18.57;24.16
17209;BME280;8720;48.488;9.202;2023-04-06T13:08:44;97054.63;;;18.57;24.21
17209;BME280;8720;48.488;9.202;2023-04-06T13:11:13;97049.34;;;18.57;23.97
17209;BME280;8720;48.488;9.202;2023-04-06T13:13:40;97045.72;;;18.58;24.12
17209;BME280;8720;48.488;9.202;2023-04-06T13:16:09;97040.44;;;18.58;23.89
17209;BME280;8720;48.488;9.202;2023-04-06T13:18:37;97041.22;;;18.60;23.72
17209;BME280;8720;48.488;9.202;2023-04-06T13:21:07;97040.34;;;18.59;23.62
17209;BME280;8720;48.488;9.202;2023-04-06T13:23:35;97035.31;;;18.55;23.66
17209;BME280;8720;48.488;9.202;2023-04-06T13:26:05;97038.38;;;18.63;23.66
17209;BME280;8720;48.488;9.202;2023-04-06T13:28:35;97049.59;;;18.68;23.48
17209;BME280;8720;48.488;9.202;2023-04-06T13:31:05;97039.75;;;18.70;23.37
17209;BME280;8720;48.488;9.202;2023-04-06T13:33:34;97038.81;;;18.71;23.03